createdAt,value
2022-12-01T00:00:39.772Z,1.00
2022-12-01T00:05:44.316Z,99.90
2022-12-01T00:10:46.121Z,1.00
2022-12-01T00:16:08.790Z,1.00
2022-12-01T00:21:32.377Z,27.80
2022-12-01T00:26:47.560Z,99.90
2022-12-01T00:37:12.314Z,50.70
2022-12-01T00:42:13.729Z,1.00
2022-12-01T00:47:33.505Z,99.90
2022-12-01T00:52:52.923Z,1.00
2022-12-01T00:58:13.444Z,1.00
2022-12-01T01:03:08.321Z,1.00
2022-12-01T01:08:12.148Z,1.00
2022-12-01T01:13:39.848Z,99.90
2022-12-01T01:20:22.326Z,99.90
2022-12-01T01:32:26.768Z,1.00
2022-12-01T01:37:45.077Z,1.00
2022-12-01T01:43:18.818Z,1.00
2022-12-01T01:49:07.547Z,99.90
2022-12-01T01:54:04.643Z,1.00
2022-12-01T01:59:03.223Z,99.90
2022-12-01T02:04:12.258Z,1.00
2022-12-01T02:09:59.283Z,1.00
2022-12-01T02:15:36.572Z,89.70
2022-12-01T02:21:42.053Z,99.90
2022-12-01T02:27:06.812Z,1.00
2022-12-01T02:32:45.038Z,1.00
2022-12-01T02:49:44.331Z,99.90
2022-12-01T03:00:40.994Z,1.00
2022-12-01T03:06:18.746Z,1.00
2022-12-01T03:11:41.266Z,1.00
2022-12-01T03:17:32.901Z,1.00
2022-12-01T03:37:16.801Z,1.00
2022-12-01T03:48:04.510Z,1.00
2022-12-01T03:59:17.089Z,1.00
2022-12-01T04:10:31.287Z,99.90
2022-12-01T04:16:57.145Z,1.00
2022-12-01T04:22:44.001Z,1.00
2022-12-01T04:34:04.294Z,1.00
2022-12-01T04:40:05.676Z,1.00
2022-12-01T04:51:36.229Z,1.00
2022-12-01T04:57:28.570Z,1.00
2022-12-01T05:02:32.394Z,1.00
2022-12-01T05:07:51.345Z,26.50
2022-12-01T05:13:12.437Z,1.00
2022-12-01T05:18:37.011Z,1.00
2022-12-01T05:24:24.860Z,99.90
2022-12-01T05:29:33.429Z,1.00
2022-12-01T05:40:41.278Z,23.90
2022-12-01T05:46:35.332Z,99.90
2022-12-01T05:52:06.018Z,1.00
2022-12-01T05:58:03.739Z,1.00
2022-12-01T06:03:03.851Z,99.90
2022-12-01T06:14:27.287Z,1.00
2022-12-01T06:20:41.568Z,95.00
2022-12-01T06:26:02.930Z,99.90
2022-12-01T06:31:20.544Z,99.90
2022-12-01T06:36:42.055Z,1.00
2022-12-01T06:41:41.589Z,1.00
2022-12-01T06:47:01.143Z,1.00
2022-12-01T06:52:39.544Z,1.00
2022-12-01T06:57:47.372Z,99.90
2022-12-01T07:02:49.326Z,1.00
2022-12-01T07:08:08.974Z,1.00
2022-12-01T07:19:02.059Z,1.00
2022-12-01T07:24:08.369Z,1.00
2022-12-01T07:29:49.720Z,1.00
2022-12-01T07:40:54.114Z,1.00
2022-12-01T07:46:44.023Z,1.00
2022-12-01T07:52:04.054Z,1.00
2022-12-01T07:57:24.560Z,1.00
2022-12-01T08:02:45.206Z,99.90
2022-12-01T08:08:08.408Z,16.10
2022-12-01T08:13:01.426Z,1.00
2022-12-01T08:18:31.712Z,1.00
2022-12-01T08:24:07.051Z,1.00
2022-12-01T08:35:06.850Z,1.00
2022-12-01T08:40:42.067Z,1.00
2022-12-01T08:45:59.324Z,1.00
2022-12-01T08:51:07.726Z,1.00
2022-12-01T08:56:05.207Z,1.00
2022-12-01T09:01:27.181Z,99.90
2022-12-01T09:11:50.794Z,99.90
2022-12-01T09:16:52.333Z,99.90
2022-12-01T09:21:45.840Z,99.90
2022-12-01T09:32:43.803Z,99.90
2022-12-01T09:37:56.954Z,99.90
2022-12-01T09:43:38.087Z,99.90
2022-12-01T09:49:25.472Z,99.90
2022-12-01T09:54:33.093Z,99.90
2022-12-01T09:59:54.907Z,99.90
2022-12-01T10:05:09.672Z,99.90
2022-12-01T10:10:18.942Z,99.90
2022-12-01T10:16:22.711Z,99.90
2022-12-01T10:21:16.575Z,94.20
2022-12-01T10:26:28.162Z,61.10
2022-12-01T10:31:24.208Z,35.00
2022-12-01T10:36:11.375Z,39.60
2022-12-01T10:46:52.661Z,18.90
2022-12-01T10:52:09.947Z,14.70
2022-12-01T10:57:15.241Z,18.20
2022-12-01T11:02:17.489Z,27.00
2022-12-01T11:07:04.567Z,15.00
2022-12-01T11:17:46.181Z,19.70
2022-12-01T11:22:49.294Z,1.00
2022-12-01T11:28:08.685Z,20.60
2022-12-01T11:33:26.102Z,1.00
2022-12-01T11:39:06.634Z,2.70
2022-12-01T11:44:22.432Z,1.10
2022-12-01T11:55:50.618Z,1.00
2022-12-01T12:01:20.551Z,1.00
2022-12-01T12:07:03.539Z,1.00
2022-12-01T12:12:08.058Z,1.00
2022-12-01T12:17:30.802Z,7.40
2022-12-01T12:22:52.215Z,1.00
2022-12-01T12:28:52.191Z,1.00
2022-12-01T12:34:35.850Z,3.20
2022-12-01T12:40:08.726Z,12.10
2022-12-01T12:45:14.321Z,28.30
2022-12-01T12:50:19.098Z,26.20
2022-12-01T12:55:22.293Z,44.20
2022-12-01T13:00:38.311Z,29.60
2022-12-01T13:11:33.362Z,47.00
2022-12-01T13:16:38.777Z,46.80
2022-12-01T13:21:25.579Z,45.60
2022-12-01T13:26:36.392Z,43.40
2022-12-01T13:31:35.102Z,60.60
2022-12-01T13:41:46.079Z,99.90
2022-12-01T13:46:34.943Z,99.90
2022-12-01T13:51:18.984Z,99.90
2022-12-01T13:56:23.783Z,99.90
2022-12-01T14:02:00.466Z,98.40
2022-12-01T14:07:21.696Z,99.40
2022-12-01T14:13:38.906Z,99.90
2022-12-01T14:19:05.592Z,99.90
2022-12-01T14:24:08.389Z,99.90
2022-12-01T14:29:11.794Z,99.90
2022-12-01T14:34:32.291Z,99.90
2022-12-01T14:39:35.471Z,99.90
2022-12-01T14:44:55.999Z,99.90
2022-12-01T14:50:20.372Z,99.90
2022-12-01T15:02:30.258Z,99.90
2022-12-01T15:07:58.869Z,99.90
2022-12-01T15:20:10.093Z,99.90
2022-12-01T15:25:32.924Z,99.90
2022-12-01T15:31:23.254Z,99.90
2022-12-01T15:43:04.518Z,99.90
2022-12-01T15:48:41.787Z,99.90
2022-12-01T15:54:19.731Z,99.90
2022-12-01T15:59:48.214Z,99.90
2022-12-01T16:31:06.483Z,99.90
2022-12-01T16:57:00.207Z,99.90
2022-12-01T17:03:12.420Z,99.90
2022-12-01T17:22:53.692Z,97.90
2022-12-01T17:34:42.123Z,79.60
2022-12-01T17:47:09.641Z,88.40
2022-12-01T18:09:48.706Z,93.10
2022-12-01T18:20:27.151Z,52.40
2022-12-01T18:26:03.566Z,81.70
2022-12-01T18:31:28.432Z,76.60
2022-12-01T18:42:07.801Z,97.20
2022-12-01T18:52:17.267Z,90.90
2022-12-01T19:02:34.737Z,99.90
2022-12-01T19:07:44.533Z,74.20
2022-12-01T19:12:59.896Z,90.00
2022-12-01T19:18:24.456Z,99.90
2022-12-01T19:23:39.386Z,88.60
2022-12-01T19:29:13.715Z,94.00
2022-12-01T19:35:24.106Z,84.10
2022-12-01T19:40:15.070Z,99.90
2022-12-01T19:44:59.846Z,99.90
2022-12-01T19:50:38.026Z,99.90
2022-12-01T19:56:42.699Z,99.90
2022-12-01T20:02:29.092Z,99.90
2022-12-01T20:07:39.639Z,99.90
2022-12-01T20:13:16.350Z,99.90
2022-12-01T20:18:19.279Z,99.90
2022-12-01T20:23:23.385Z,99.90
2022-12-01T20:28:47.151Z,99.90
2022-12-01T20:34:19.853Z,99.90
2022-12-01T20:39:27.600Z,99.90
2022-12-01T20:44:15.940Z,99.90
2022-12-01T20:49:13.846Z,99.90
2022-12-01T20:54:33.516Z,99.90
2022-12-01T21:00:14.728Z,99.90
2022-12-01T21:12:26.900Z,99.90
2022-12-01T21:17:52.470Z,99.90
2022-12-01T21:23:39.475Z,99.90
2022-12-01T21:28:49.672Z,99.90
2022-12-01T21:33:38.009Z,99.90
2022-12-01T21:39:10.407Z,99.90
2022-12-01T21:44:29.730Z,99.90
2022-12-01T21:55:06.987Z,99.90
2022-12-01T22:00:29.828Z,99.90
2022-12-01T22:06:28.917Z,99.90
2022-12-01T22:12:11.708Z,99.90
2022-12-01T22:17:30.785Z,99.90
2022-12-01T22:23:05.876Z,99.90
2022-12-01T22:28:46.738Z,99.90
2022-12-01T22:34:06.459Z,1.00
2022-12-01T22:39:21.869Z,1.00
2022-12-01T22:44:44.641Z,1.00
2022-12-01T22:50:04.895Z,1.00
2022-12-01T22:55:13.547Z,1.00
2022-12-01T23:18:35.224Z,1.00
2022-12-01T23:23:56.912Z,1.00
2022-12-01T23:29:05.599Z,1.00
2022-12-01T23:34:59.758Z,1.00
2022-12-01T23:39:57.787Z,99.90
2022-12-01T23:45:36.868Z,41.20
2022-12-01T23:50:54.881Z,1.00
2022-12-01T23:55:55.135Z,1.00
